sensor_id;sensor_type;location;lat;lon;timestamp;temperature;humidity
14739;DHT22;7461;52.440;13.540;2022-07-22T00:00:15;19.70;99.90
14739;DHT22;7461;52.440;13.540;2022-07-22T00:02:42;19.60;99.90
14739;DHT22;7461;52.440;13.540;2022-07-22T00:05:09;19.70;99.90
14739;DHT22;7461;52.440;13.540;2022-07-22T00:07:38;19.80;99.90
14739;DHT22;7461;52.440;13.540;2022-07-22T00:10:07;19.70;99.90
14739;DHT22;7461;52.440;13.540;2022-07-22T00:12:36;19.70;99.90
14739;DHT22;7461;52.440;13.540;2022-07-22T00:15:04;19.60;99.90
14739;DHT22;7461;52.440;13.540;2022-07-22T00:17:31;19.70;99.90
14739;DHT22;7461;52.440;13.540;2022-07-22T00:19:58;19.60;99.90
14739;DHT22;7461;52.440;13.540;2022-07-22T00:22:25;19.60;99.90
14739;DHT22;7461;52.440;13.540;2022-07-22T00:24:53;19.60;99.90
14739;DHT22;7461;52.440;13.540;2022-07-22T00:27:20;19.60;99.90
14739;DHT22;7461;52.440;13.540;2022-07-22T00:29:47;19.60;99.90
14739;DHT22;7461;52.440;13.540;2022-07-22T00:32:14;19.60;99.90
14739;DHT22;7461;52.440;13.540;2022-07-22T00:34:40;19.60;99.90
14739;DHT22;7461;52.440;13.540;2022-07-22T00:37:07;19.50;99.90
14739;DHT22;7461;52.440;13.540;2022-07-22T00:39:35;19.60;99.90
14739;DHT22;7461;52.440;13.540;2022-07-22T00:42:04;19.60;99.90
14739;DHT22;7461;52.440;13.540;2022-07-22T00:44:31;19.70;99.90
14739;DHT22;7461;52.440;13.540;2022-07-22T00:46:58;19.60;99.90
14739;DHT22;7461;52.440;13.540;2022-07-22T00:49:25;19.60;99.90
14739;DHT22;7461;52.440;13.540;2022-07-22T00:51:52;19.60;99.90
14739;DHT22;7461;52.440;13.540;2022-07-22T00:54:18;19.60;99.90
14739;DHT22;7461;52.440;13.540;2022-07-22T00:56:45;19.50;99.90
14739;DHT22;7461;52.440;13.540;2022-07-22T00:59:14;19.50;99.90
14739;DHT22;7461;52.440;13.540;2022-07-22T01:05:04;19.50;99.90
14739;DHT22;7461;52.440;13.540;2022-07-22T01:07:31;19.50;99.90
14739;DHT22;7461;52.440;13.540;2022-07-22T01:09:58;19.50;99.90
14739;DHT22;7461;52.440;13.540;2022-07-22T01:12:25;19.40;99.90
14739;DHT22;7461;52.440;13.540;2022-07-22T01:14:53;19.40;99.90
14739;DHT22;7461;52.440;13.540;2022-07-22T01:17:20;19.40;99.90
14739;DHT22;7461;52.440;13.540;2022-07-22T01:19:47;19.30;99.90
14739;DHT22;7461;52.440;13.540;2022-07-22T01:22:16;19.30;99.90
14739;DHT22;7461;52.440;13.540;2022-07-22T01:24:42;19.30;99.90
14739;DHT22;7461;52.440;13.540;2022-07-22T01:27:09;19.30;99.90
14739;DHT22;7461;52.440;13.540;2022-07-22T01:32:58;19.30;99.90
14739;DHT22;7461;52.440;13.540;2022-07-22T01:35:25;19.20;99.90
14739;DHT22;7461;52.440;13.540;2022-07-22T01:37:53;19.30;99.90
14739;DHT22;7461;52.440;13.540;2022-07-22T01:40:20;19.20;99.90
14739;DHT22;7461;52.440;13.540;2022-07-22T01:42:47;19.20;99.90
14739;DHT22;7461;52.440;13.540;2022-07-22T01:45:14;19.20;99.90
14739;DHT22;7461;52.440;13.540;2022-07-22T01:51:03;19.10;99.90
14739;DHT22;7461;52.440;13.540;2022-07-22T01:53:31;19.20;99.90
14739;DHT22;7461;52.440;13.540;2022-07-22T01:55:58;19.20;99.90
14739;DHT22;7461;52.440;13.540;2022-07-22T01:58:25;19.10;99.90
14739;DHT22;7461;52.440;13.540;2022-07-22T02:00:52;19.10;99.90
14739;DHT22;7461;52.440;13.540;2022-07-22T02:03:34;19.10;99.90
14739;DHT22;7461;52.440;13.540;2022-07-22T02:08:38;19.00;99.90
14739;DHT22;7461;52.440;13.540;2022-07-22T02:11:05;19.00;99.90
14739;DHT22;7461;52.440;13.540;2022-07-22T02:13:32;19.00;99.90
14739;DHT22;7461;52.440;13.540;2022-07-22T02:15:59;19.00;99.90
14739;DHT22;7461;52.440;13.540;2022-07-22T02:18:32;19.00;99.90
14739;DHT22;7461;52.440;13.540;2022-07-22T02:20:58;19.00;99.90
14739;DHT22;7461;52.440;13.540;2022-07-22T02:29:24;19.00;99.90
14739;DHT22;7461;52.440;13.540;2022-07-22T02:31:51;19.00;99.90
14739;DHT22;7461;52.440;13.540;2022-07-22T02:34:18;19.00;99.90
14739;DHT22;7461;52.440;13.540;2022-07-22T02:36:45;18.90;99.90
14739;DHT22;7461;52.440;13.540;2022-07-22T02:39:12;19.00;99.90
14739;DHT22;7461;52.440;13.540;2022-07-22T02:41:39;18.90;99.90
14739;DHT22;7461;52.440;13.540;2022-07-22T02:44:06;19.00;99.90
14739;DHT22;7461;52.440;13.540;2022-07-22T02:46:34;18.90;99.90
14739;DHT22;7461;52.440;13.540;2022-07-22T02:49:01;18.90;99.90
14739;DHT22;7461;52.440;13.540;2022-07-22T02:51:28;19.00;99.90
14739;DHT22;7461;52.440;13.540;2022-07-22T02:53:54;18.90;99.90
14739;DHT22;7461;52.440;13.540;2022-07-22T02:56:21;18.90;99.90
14739;DHT22;7461;52.440;13.540;2022-07-22T02:58:48;18.90;99.90
14739;DHT22;7461;52.440;13.540;2022-07-22T03:04:40;18.90;99.90
14739;DHT22;7461;52.440;13.540;2022-07-22T03:07:07;18.90;99.90
14739;DHT22;7461;52.440;13.540;2022-07-22T03:09:34;18.80;99.90
14739;DHT22;7461;52.440;13.540;2022-07-22T03:12:01;18.80;99.90
14739;DHT22;7461;52.440;13.540;2022-07-22T03:14:28;18.80;99.90
14739;DHT22;7461;52.440;13.540;2022-07-22T03:16:55;18.80;99.90
14739;DHT22;7461;52.440;13.540;2022-07-22T03:19:21;18.80;99.90
14739;DHT22;7461;52.440;13.540;2022-07-22T03:21:50;18.70;99.90
14739;DHT22;7461;52.440;13.540;2022-07-22T03:24:16;18.80;99.90
14739;DHT22;7461;52.440;13.540;2022-07-22T03:26:43;18.80;99.90
14739;DHT22;7461;52.440;13.540;2022-07-22T03:29:10;18.80;99.90
14739;DHT22;7461;52.440;13.540;2022-07-22T03:31:37;18.80;99.90
14739;DHT22;7461;52.440;13.540;2022-07-22T03:34:04;18.80;99.90
14739;DHT22;7461;52.440;13.540;2022-07-22T03:36:31;18.80;99.90
14739;DHT22;7461;52.440;13.540;2022-07-22T03:38:59;18.80;99.90
14739;DHT22;7461;52.440;13.540;2022-07-22T03:41:26;18.70;99.90
14739;DHT22;7461;52.440;13.540;2022-07-22T03:43:53;18.80;99.90
14739;DHT22;7461;52.440;13.540;2022-07-22T03:46:20;18.80;99.90
14739;DHT22;7461;52.440;13.540;2022-07-22T03:48:47;18.80;99.90
14739;DHT22;7461;52.440;13.540;2022-07-22T03:51:14;18.70;99.90
14739;DHT22;7461;52.440;13.540;2022-07-22T03:53:41;18.80;99.90
14739;DHT22;7461;52.440;13.540;2022-07-22T03:56:09;18.70;99.90
14739;DHT22;7461;52.440;13.540;2022-07-22T03:58:37;18.70;99.90
14739;DHT22;7461;52.440;13.540;2022-07-22T04:01:03;18.70;99.90
14739;DHT22;7461;52.440;13.540;2022-07-22T04:03:30;18.70;99.90
14739;DHT22;7461;52.440;13.540;2022-07-22T04:05:58;18.70;99.90
14739;DHT22;7461;52.440;13.540;2022-07-22T04:08:24;18.70;99.90
14739;DHT22;7461;52.440;13.540;2022-07-22T04:10:51;18.60;99.90
14739;DHT22;7461;52.440;13.540;2022-07-22T04:13:19;18.70;99.90
14739;DHT22;7461;52.440;13.540;2022-07-22T04:15:46;18.70;99.90
14739;DHT22;7461;52.440;13.540;2022-07-22T04:18:13;18.70;99.90
14739;DHT22;7461;52.440;13.540;2022-07-22T04:20:40;18.70;99.90
14739;DHT22;7461;52.440;13.540;2022-07-22T04:23:07;18.70;99.90
14739;DHT22;7461;52.440;13.540;2022-07-22T04:25:34;18.70;99.90
14739;DHT22;7461;52.440;13.540;2022-07-22T04:28:03;18.70;99.90
14739;DHT22;7461;52.440;13.540;2022-07-22T04:30:31;18.70;99.90
14739;DHT22;7461;52.440;13.540;2022-07-22T04:32:58;18.70;99.90
14739;DHT22;7461;52.440;13.540;2022-07-22T04:35:25;18.70;99.90
14739;DHT22;7461;52.440;13.540;2022-07-22T04:37:54;18.80;99.90
14739;DHT22;7461;52.440;13.540;2022-07-22T04:40:20;18.80;99.90
14739;DHT22;7461;52.440;13.540;2022-07-22T04:42:47;18.80;99.90
14739;DHT22;7461;52.440;13.540;2022-07-22T04:45:14;18.80;99.90
14739;DHT22;7461;52.440;13.540;2022-07-22T04:47:42;18.80;99.90
14739;DHT22;7461;52.440;13.540;2022-07-22T04:50:09;18.80;99.90
14739;DHT22;7461;52.440;13.540;2022-07-22T04:52:36;18.80;99.90
14739;DHT22;7461;52.440;13.540;2022-07-22T04:55:04;18.90;99.90
14739;DHT22;7461;52.440;13.540;2022-07-22T04:57:31;18.90;99.90
14739;DHT22;7461;52.440;13.540;2022-07-22T04:59:58;18.90;99.90
14739;DHT22;7461;52.440;13.540;2022-07-22T05:02:24;19.00;99.90
14739;DHT22;7461;52.440;13.540;2022-07-22T05:04:53;19.00;99.90
14739;DHT22;7461;52.440;13.540;2022-07-22T05:07:19;19.10;99.90
14739;DHT22;7461;52.440;13.540;2022-07-22T05:09:46;19.10;99.90
14739;DHT22;7461;52.440;13.540;2022-07-22T05:12:13;19.10;99.90
14739;DHT22;7461;52.440;13.540;2022-07-22T05:14:40;19.10;99.90
14739;DHT22;7461;52.440;13.540;2022-07-22T05:17:09;19.20;99.90
14739;DHT22;7461;52.440;13.540;2022-07-22T05:19:37;19.20;99.90
14739;DHT22;7461;52.440;13.540;2022-07-22T05:22:06;19.20;99.90
14739;DHT22;7461;52.440;13.540;2022-07-22T05:24:33;19.20;99.90
14739;DHT22;7461;52.440;13.540;2022-07-22T05:27:00;19.20;99.90
14739;DHT22;7461;52.440;13.540;2022-07-22T05:29:27;19.20;99.90
14739;DHT22;7461;52.440;13.540;2022-07-22T05:31:53;19.20;99.90
14739;DHT22;7461;52.440;13.540;2022-07-22T05:34:20;19.20;99.90
14739;DHT22;7461;52.440;13.540;2022-07-22T05:36:47;19.20;99.90
14739;DHT22;7461;52.440;13.540;2022-07-22T05:39:15;19.30;99.90
14739;DHT22;7461;52.440;13.540;2022-07-22T05:41:42;19.30;99.90
14739;DHT22;7461;52.440;13.540;2022-07-22T05:44:09;19.30;99.90
14739;DHT22;7461;52.440;13.540;2022-07-22T05:46:36;19.30;99.90
14739;DHT22;7461;52.440;13.540;2022-07-22T05:49:03;19.30;99.90
14739;DHT22;7461;52.440;13.540;2022-07-22T05:51:30;19.30;99.90
14739;DHT22;7461;52.440;13.540;2022-07-22T05:53:57;19.30;99.90
14739;DHT22;7461;52.440;13.540;2022-07-22T05:56:25;19.30;99.90
14739;DHT22;7461;52.440;13.540;2022-07-22T05:58:52;19.30;99.90
14739;DHT22;7461;52.440;13.540;2022-07-22T06:01:21;19.30;99.90
14739;DHT22;7461;52.440;13.540;2022-07-22T06:03:48;19.40;99.90
14739;DHT22;7461;52.440;13.540;2022-07-22T06:06:15;19.40;99.90
14739;DHT22;7461;52.440;13.540;2022-07-22T06:08:42;19.50;99.90
14739;DHT22;7461;52.440;13.540;2022-07-22T06:11:09;19.50;99.90
14739;DHT22;7461;52.440;13.540;2022-07-22T06:13:38;19.50;99.90
14739;DHT22;7461;52.440;13.540;2022-07-22T06:16:05;19.50;99.90
14739;DHT22;7461;52.440;13.540;2022-07-22T06:18:32;19.50;99.90
14739;DHT22;7461;52.440;13.540;2022-07-22T06:20:59;19.50;99.90
14739;DHT22;7461;52.440;13.540;2022-07-22T06:23:26;19.50;99.90
14739;DHT22;7461;52.440;13.540;2022-07-22T06:25:53;19.60;99.90
14739;DHT22;7461;52.440;13.540;2022-07-22T06:28:19;19.60;99.90
14739;DHT22;7461;52.440;13.540;2022-07-22T06:30:48;19.60;99.90
14739;DHT22;7461;52.440;13.540;2022-07-22T06:33:14;19.60;99.90
14739;DHT22;7461;52.440;13.540;2022-07-22T06:35:41;19.70;99.90
14739;DHT22;7461;52.440;13.540;2022-07-22T06:38:08;19.70;99.90
14739;DHT22;7461;52.440;13.540;2022-07-22T06:40:35;19.70;99.90
14739;DHT22;7461;52.440;13.540;2022-07-22T06:43:03;19.80;99.90
14739;DHT22;7461;52.440;13.540;2022-07-22T06:45:30;19.80;99.90
14739;DHT22;7461;52.440;13.540;2022-07-22T06:47:58;19.80;99.90
14739;DHT22;7461;52.440;13.540;2022-07-22T06:50:25;19.90;99.90
14739;DHT22;7461;52.440;13.540;2022-07-22T06:52:53;19.90;99.90
14739;DHT22;7461;52.440;13.540;2022-07-22T06:55:20;20.00;99.90
14739;DHT22;7461;52.440;13.540;2022-07-22T06:57:47;20.10;99.90
14739;DHT22;7461;52.440;13.540;2022-07-22T07:00:14;20.10;99.90
14739;DHT22;7461;52.440;13.540;2022-07-22T07:02:41;20.20;99.90
14739;DHT22;7461;52.440;13.540;2022-07-22T07:05:10;20.30;99.90
14739;DHT22;7461;52.440;13.540;2022-07-22T07:07:37;20.40;99.90
14739;DHT22;7461;52.440;13.540;2022-07-22T07:10:04;20.50;99.90
14739;DHT22;7461;52.440;13.540;2022-07-22T07:12:31;20.50;99.90
14739;DHT22;7461;52.440;13.540;2022-07-22T07:14:58;20.60;99.90
14739;DHT22;7461;52.440;13.540;2022-07-22T07:17:25;20.60;99.90
14739;DHT22;7461;52.440;13.540;2022-07-22T07:19:52;20.50;99.90
14739;DHT22;7461;52.440;13.540;2022-07-22T07:22:20;20.60;99.90
14739;DHT22;7461;52.440;13.540;2022-07-22T07:24:47;20.70;99.90
14739;DHT22;7461;52.440;13.540;2022-07-22T07:27:14;20.70;99.90
14739;DHT22;7461;52.440;13.540;2022-07-22T07:29:41;20.80;99.90
14739;DHT22;7461;52.440;13.540;2022-07-22T07:32:07;20.80;99.90
14739;DHT22;7461;52.440;13.540;2022-07-22T07:37:01;21.00;99.90
14739;DHT22;7461;52.440;13.540;2022-07-22T07:39:29;21.00;99.90
14739;DHT22;7461;52.440;13.540;2022-07-22T07:41:56;21.10;99.90
14739;DHT22;7461;52.440;13.540;2022-07-22T07:44:23;21.20;99.90
14739;DHT22;7461;52.440;13.540;2022-07-22T07:46:50;21.20;99.90
14739;DHT22;7461;52.440;13.540;2022-07-22T07:49:16;21.30;99.90
14739;DHT22;7461;52.440;13.540;2022-07-22T07:51:43;21.30;99.90
14739;DHT22;7461;52.440;13.540;2022-07-22T07:54:10;21.40;99.90
14739;DHT22;7461;52.440;13.540;2022-07-22T07:56:39;21.40;99.90
14739;DHT22;7461;52.440;13.540;2022-07-22T07:59:05;21.60;99.90
14739;DHT22;7461;52.440;13.540;2022-07-22T08:01:32;21.70;99.90
14739;DHT22;7461;52.440;13.540;2022-07-22T08:03:59;21.70;99.90
14739;DHT22;7461;52.440;13.540;2022-07-22T08:06:26;21.70;99.90
14739;DHT22;7461;52.440;13.540;2022-07-22T08:08:53;21.90;99.90
14739;DHT22;7461;52.440;13.540;2022-07-22T08:11:20;22.00;99.90
14739;DHT22;7461;52.440;13.540;2022-07-22T08:13:48;22.10;99.90
14739;DHT22;7461;52.440;13.540;2022-07-22T08:16:15;22.20;99.90
14739;DHT22;7461;52.440;13.540;2022-07-22T08:18:42;22.30;99.90
14739;DHT22;7461;52.440;13.540;2022-07-22T08:21:09;22.40;99.90
14739;DHT22;7461;52.440;13.540;2022-07-22T08:23:36;22.50;99.90
14739;DHT22;7461;52.440;13.540;2022-07-22T08:26:03;22.50;99.90
14739;DHT22;7461;52.440;13.540;2022-07-22T08:28:30;22.60;99.90
14739;DHT22;7461;52.440;13.540;2022-07-22T08:30:58;22.50;99.90
14739;DHT22;7461;52.440;13.540;2022-07-22T08:33:25;22.50;99.90
14739;DHT22;7461;52.440;13.540;2022-07-22T08:35:52;22.50;99.90
14739;DHT22;7461;52.440;13.540;2022-07-22T08:38:19;22.50;99.90
14739;DHT22;7461;52.440;13.540;2022-07-22T08:40:46;22.40;99.90
14739;DHT22;7461;52.440;13.540;2022-07-22T08:43:13;22.40;99.90
14739;DHT22;7461;52.440;13.540;2022-07-22T08:45:40;22.40;99.90
14739;DHT22;7461;52.440;13.540;2022-07-22T08:48:09;22.40;99.90
14739;DHT22;7461;52.440;13.540;2022-07-22T08:50:35;22.50;99.90
14739;DHT22;7461;52.440;13.540;2022-07-22T08:53:02;22.60;99.90
14739;DHT22;7461;52.440;13.540;2022-07-22T08:55:30;22.60;99.90
14739;DHT22;7461;52.440;13.540;2022-07-22T08:57:57;22.60;99.90
14739;DHT22;7461;52.440;13.540;2022-07-22T09:00:24;22.70;99.90
14739;DHT22;7461;52.440;13.540;2022-07-22T09:02:51;22.70;99.90
14739;DHT22;7461;52.440;13.540;2022-07-22T09:05:19;22.70;99.90
14739;DHT22;7461;52.440;13.540;2022-07-22T09:07:46;22.70;99.90
14739;DHT22;7461;52.440;13.540;2022-07-22T09:10:15;22.70;99.90
14739;DHT22;7461;52.440;13.540;2022-07-22T09:12:57;22.70;99.90
14739;DHT22;7461;52.440;13.540;2022-07-22T09:15:29;22.70;99.90
14739;DHT22;7461;52.440;13.540;2022-07-22T09:17:57;22.70;99.90
14739;DHT22;7461;52.440;13.540;2022-07-22T09:20:26;22.60;99.90
14739;DHT22;7461;52.440;13.540;2022-07-22T09:22:53;22.60;99.90
14739;DHT22;7461;52.440;13.540;2022-07-22T09:25:26;22.70;99.90
14739;DHT22;7461;52.440;13.540;2022-07-22T09:27:56;22.60;99.90
14739;DHT22;7461;52.440;13.540;2022-07-22T09:30:24;22.70;99.90
14739;DHT22;7461;52.440;13.540;2022-07-22T09:32:53;22.70;99.90
14739;DHT22;7461;52.440;13.540;2022-07-22T09:35:22;22.70;99.90
14739;DHT22;7461;52.440;13.540;2022-07-22T09:37:53;22.60;99.90
14739;DHT22;7461;52.440;13.540;2022-07-22T09:40:23;22.60;99.90
14739;DHT22;7461;52.440;13.540;2022-07-22T09:42:52;22.50;99.90
14739;DHT22;7461;52.440;13.540;2022-07-22T09:45:20;22.60;99.90
14739;DHT22;7461;52.440;13.540;2022-07-22T09:47:49;22.60;99.90
14739;DHT22;7461;52.440;13.540;2022-07-22T09:50:19;22.60;99.90
14739;DHT22;7461;52.440;13.540;2022-07-22T09:52:48;22.60;99.90
14739;DHT22;7461;52.440;13.540;2022-07-22T09:55:19;22.70;99.90
14739;DHT22;7461;52.440;13.540;2022-07-22T09:57:46;22.70;99.90
14739;DHT22;7461;52.440;13.540;2022-07-22T10:00:15;22.70;99.90
14739;DHT22;7461;52.440;13.540;2022-07-22T10:02:46;22.70;99.90
14739;DHT22;7461;52.440;13.540;2022-07-22T10:05:15;22.60;99.90
14739;DHT22;7461;52.440;13.540;2022-07-22T10:07:43;22.60;99.90
14739;DHT22;7461;52.440;13.540;2022-07-22T10:10:14;22.50;99.90
14739;DHT22;7461;52.440;13.540;2022-07-22T10:12:43;22.50;99.90
14739;DHT22;7461;52.440;13.540;2022-07-22T10:15:11;22.40;99.90
14739;DHT22;7461;52.440;13.540;2022-07-22T10:17:41;22.40;99.90
14739;DHT22;7461;52.440;13.540;2022-07-22T10:20:10;22.30;99.90
14739;DHT22;7461;52.440;13.540;2022-07-22T10:22:52;22.20;99.90
14739;DHT22;7461;52.440;13.540;2022-07-22T10:25:20;22.20;99.90
14739;DHT22;7461;52.440;13.540;2022-07-22T10:27:51;22.20;99.90
14739;DHT22;7461;52.440;13.540;2022-07-22T10:30:19;22.20;99.90
14739;DHT22;7461;52.440;13.540;2022-07-22T10:33:05;22.20;99.90
14739;DHT22;7461;52.440;13.540;2022-07-22T10:35:34;22.30;99.90
14739;DHT22;7461;52.440;13.540;2022-07-22T10:38:04;22.40;99.90
14739;DHT22;7461;52.440;13.540;2022-07-22T10:40:33;22.40;99.90
14739;DHT22;7461;52.440;13.540;2022-07-22T10:43:14;22.50;99.90
14739;DHT22;7461;52.440;13.540;2022-07-22T10:45:44;22.60;99.90
14739;DHT22;7461;52.440;13.540;2022-07-22T10:48:13;22.60;99.90
14739;DHT22;7461;52.440;13.540;2022-07-22T10:50:55;22.70;99.90
14739;DHT22;7461;52.440;13.540;2022-07-22T10:53:43;22.90;99.90
14739;DHT22;7461;52.440;13.540;2022-07-22T10:56:19;23.30;99.90
14739;DHT22;7461;52.440;13.540;2022-07-22T10:58:56;23.50;99.90
14739;DHT22;7461;52.440;13.540;2022-07-22T11:01:26;23.50;99.90
14739;DHT22;7461;52.440;13.540;2022-07-22T11:03:54;23.60;99.90
14739;DHT22;7461;52.440;13.540;2022-07-22T11:06:27;23.60;99.90
14739;DHT22;7461;52.440;13.540;2022-07-22T11:08:56;23.60;99.90
14739;DHT22;7461;52.440;13.540;2022-07-22T11:11:35;23.60;99.90
14739;DHT22;7461;52.440;13.540;2022-07-22T11:14:14;23.60;99.90
14739;DHT22;7461;52.440;13.540;2022-07-22T11:16:41;23.60;99.90
14739;DHT22;7461;52.440;13.540;2022-07-22T11:19:09;23.60;99.90
14739;DHT22;7461;52.440;13.540;2022-07-22T11:21:36;23.70;99.90
14739;DHT22;7461;52.440;13.540;2022-07-22T11:24:05;23.80;99.90
14739;DHT22;7461;52.440;13.540;2022-07-22T11:26:36;23.80;99.90
14739;DHT22;7461;52.440;13.540;2022-07-22T11:29:05;23.80;99.90
14739;DHT22;7461;52.440;13.540;2022-07-22T11:31:32;23.70;99.90
14739;DHT22;7461;52.440;13.540;2022-07-22T11:34:07;23.60;99.90
14739;DHT22;7461;52.440;13.540;2022-07-22T11:36:36;23.60;99.90
14739;DHT22;7461;52.440;13.540;2022-07-22T11:39:04;23.60;99.90
14739;DHT22;7461;52.440;13.540;2022-07-22T11:41:32;23.60;99.90
14739;DHT22;7461;52.440;13.540;2022-07-22T11:43:59;23.50;99.90
14739;DHT22;7461;52.440;13.540;2022-07-22T11:46:28;23.50;99.90
14739;DHT22;7461;52.440;13.540;2022-07-22T11:49:01;23.50;99.90
14739;DHT22;7461;52.440;13.540;2022-07-22T11:51:30;23.40;99.90
14739;DHT22;7461;52.440;13.540;2022-07-22T11:53:59;23.40;99.90
14739;DHT22;7461;52.440;13.540;2022-07-22T11:56:26;23.40;99.90
14739;DHT22;7461;52.440;13.540;2022-07-22T11:58:53;23.40;99.90
14739;DHT22;7461;52.440;13.540;2022-07-22T12:01:22;23.50;99.90
14739;DHT22;7461;52.440;13.540;2022-07-22T12:03:52;23.50;99.90
14739;DHT22;7461;52.440;13.540;2022-07-22T12:06:21;23.50;99.90
14739;DHT22;7461;52.440;13.540;2022-07-22T12:08:50;23.50;99.90
14739;DHT22;7461;52.440;13.540;2022-07-22T12:11:19;23.60;99.90
14739;DHT22;7461;52.440;13.540;2022-07-22T12:13:49;23.50;99.90
14739;DHT22;7461;52.440;13.540;2022-07-22T12:16:21;23.60;99.90
14739;DHT22;7461;52.440;13.540;2022-07-22T12:19:03;23.60;99.90
14739;DHT22;7461;52.440;13.540;2022-07-22T12:21:32;23.60;99.90
14739;DHT22;7461;52.440;13.540;2022-07-22T12:24:02;23.70;99.90
14739;DHT22;7461;52.440;13.540;2022-07-22T12:26:48;23.70;99.90
14739;DHT22;7461;52.440;13.540;2022-07-22T12:29:21;23.70;99.90
14739;DHT22;7461;52.440;13.540;2022-07-22T12:31:52;23.70;99.90
14739;DHT22;7461;52.440;13.540;2022-07-22T12:34:36;23.80;99.90
14739;DHT22;7461;52.440;13.540;2022-07-22T12:37:17;23.80;99.90
14739;DHT22;7461;52.440;13.540;2022-07-22T12:39:55;23.80;99.90
14739;DHT22;7461;52.440;13.540;2022-07-22T12:42:23;23.80;99.90
14739;DHT22;7461;52.440;13.540;2022-07-22T12:44:52;23.80;99.90
14739;DHT22;7461;52.440;13.540;2022-07-22T12:47:45;23.80;99.90
14739;DHT22;7461;52.440;13.540;2022-07-22T12:50:19;23.80;99.90
14739;DHT22;7461;52.440;13.540;2022-07-22T12:52:47;23.80;99.90
14739;DHT22;7461;52.440;13.540;2022-07-22T12:55:14;23.90;99.90
14739;DHT22;7461;52.440;13.540;2022-07-22T12:57:41;24.00;99.90
14739;DHT22;7461;52.440;13.540;2022-07-22T13:00:09;24.10;99.90
14739;DHT22;7461;52.440;13.540;2022-07-22T13:02:36;24.20;99.90
14739;DHT22;7461;52.440;13.540;2022-07-22T13:05:04;24.20;99.90
14739;DHT22;7461;52.440;13.540;2022-07-22T13:07:32;24.10;99.90
14739;DHT22;7461;52.440;13.540;2022-07-22T13:09:59;24.10;99.90
14739;DHT22;7461;52.440;13.540;2022-07-22T13:12:26;24.10;99.90
14739;DHT22;7461;52.440;13.540;2022-07-22T13:14:53;24.20;99.90
14739;DHT22;7461;52.440;13.540;2022-07-22T13:17:20;24.30;99.90
14739;DHT22;7461;52.440;13.540;2022-07-22T13:19:46;24.30;99.90
14739;DHT22;7461;52.440;13.540;2022-07-22T13:22:13;24.30;99.90
14739;DHT22;7461;52.440;13.540;2022-07-22T13:24:42;24.30;99.90
14739;DHT22;7461;52.440;13.540;2022-07-22T13:27:09;24.10;99.90
14739;DHT22;7461;52.440;13.540;2022-07-22T13:29:35;24.00;99.90
14739;DHT22;7461;52.440;13.540;2022-07-22T13:32:02;24.00;99.90
14739;DHT22;7461;52.440;13.540;2022-07-22T13:34:30;23.90;99.90
14739;DHT22;7461;52.440;13.540;2022-07-22T13:36:57;23.90;99.90
14739;DHT22;7461;52.440;13.540;2022-07-22T13:39:24;24.00;99.90
14739;DHT22;7461;52.440;13.540;2022-07-22T13:41:52;24.20;99.90
14739;DHT22;7461;52.440;13.540;2022-07-22T13:44:19;24.30;99.90
14739;DHT22;7461;52.440;13.540;2022-07-22T13:46:46;24.30;99.90
14739;DHT22;7461;52.440;13.540;2022-07-22T13:49:14;24.30;99.90
14739;DHT22;7461;52.440;13.540;2022-07-22T13:51:41;24.20;99.90
14739;DHT22;7461;52.440;13.540;2022-07-22T13:54:08;24.10;99.90
14739;DHT22;7461;52.440;13.540;2022-07-22T13:56:35;24.00;99.90
14739;DHT22;7461;52.440;13.540;2022-07-22T13:59:04;24.00;99.90
14739;DHT22;7461;52.440;13.540;2022-07-22T14:01:31;24.20;99.90
14739;DHT22;7461;52.440;13.540;2022-07-22T14:03:58;24.30;99.90
14739;DHT22;7461;52.440;13.540;2022-07-22T14:06:26;24.40;99.90
14739;DHT22;7461;52.440;13.540;2022-07-22T14:08:53;24.40;99.90
14739;DHT22;7461;52.440;13.540;2022-07-22T14:11:20;24.40;99.90
14739;DHT22;7461;52.440;13.540;2022-07-22T14:13:47;24.20;99.90
14739;DHT22;7461;52.440;13.540;2022-07-22T14:16:15;24.10;99.90
14739;DHT22;7461;52.440;13.540;2022-07-22T14:19:01;24.10;99.90
14739;DHT22;7461;52.440;13.540;2022-07-22T14:21:29;23.90;99.90
14739;DHT22;7461;52.440;13.540;2022-07-22T14:23:56;23.90;99.90
14739;DHT22;7461;52.440;13.540;2022-07-22T14:26:23;24.00;99.90
14739;DHT22;7461;52.440;13.540;2022-07-22T14:28:50;24.10;99.90
14739;DHT22;7461;52.440;13.540;2022-07-22T14:31:19;24.20;99.90
14739;DHT22;7461;52.440;13.540;2022-07-22T14:33:46;24.20;99.90
14739;DHT22;7461;52.440;13.540;2022-07-22T14:36:14;24.30;99.90
14739;DHT22;7461;52.440;13.540;2022-07-22T14:38:41;24.30;99.90
14739;DHT22;7461;52.440;13.540;2022-07-22T14:41:08;24.40;99.90
14739;DHT22;7461;52.440;13.540;2022-07-22T14:43:35;24.50;99.90
14739;DHT22;7461;52.440;13.540;2022-07-22T14:46:03;24.60;99.90
14739;DHT22;7461;52.440;13.540;2022-07-22T14:48:34;24.60;99.90
14739;DHT22;7461;52.440;13.540;2022-07-22T14:51:01;24.50;99.90
14739;DHT22;7461;52.440;13.540;2022-07-22T14:53:27;24.60;99.90
14739;DHT22;7461;52.440;13.540;2022-07-22T14:55:54;24.50;99.90
14739;DHT22;7461;52.440;13.540;2022-07-22T14:58:21;24.60;99.90
14739;DHT22;7461;52.440;13.540;2022-07-22T15:00:48;24.70;99.90
14739;DHT22;7461;52.440;13.540;2022-07-22T15:03:15;24.70;99.90
14739;DHT22;7461;52.440;13.540;2022-07-22T15:05:43;24.60;99.90
14739;DHT22;7461;52.440;13.540;2022-07-22T15:08:10;24.60;99.90
14739;DHT22;7461;52.440;13.540;2022-07-22T15:10:37;24.50;99.90
14739;DHT22;7461;52.440;13.540;2022-07-22T15:13:04;24.60;99.90
14739;DHT22;7461;52.440;13.540;2022-07-22T15:15:31;24.60;99.90
14739;DHT22;7461;52.440;13.540;2022-07-22T15:17:58;24.60;99.90
14739;DHT22;7461;52.440;13.540;2022-07-22T15:20:26;24.50;99.90
14739;DHT22;7461;52.440;13.540;2022-07-22T15:22:54;24.60;99.90
14739;DHT22;7461;52.440;13.540;2022-07-22T15:25:21;24.60;99.90
14739;DHT22;7461;52.440;13.540;2022-07-22T15:27:49;24.60;99.90
14739;DHT22;7461;52.440;13.540;2022-07-22T15:30:16;24.70;99.90
14739;DHT22;7461;52.440;13.540;2022-07-22T15:32:43;24.80;99.90
14739;DHT22;7461;52.440;13.540;2022-07-22T15:35:09;24.70;99.90
14739;DHT22;7461;52.440;13.540;2022-07-22T15:37:36;24.60;99.90
14739;DHT22;7461;52.440;13.540;2022-07-22T15:40:08;24.60;99.90
14739;DHT22;7461;52.440;13.540;2022-07-22T15:42:36;24.50;99.90
14739;DHT22;7461;52.440;13.540;2022-07-22T15:45:04;24.40;99.90
14739;DHT22;7461;52.440;13.540;2022-07-22T15:47:31;24.40;99.90
14739;DHT22;7461;52.440;13.540;2022-07-22T15:49:58;24.40;99.90
14739;DHT22;7461;52.440;13.540;2022-07-22T15:52:25;24.40;99.90
14739;DHT22;7461;52.440;13.540;2022-07-22T15:54:51;24.40;99.90
14739;DHT22;7461;52.440;13.540;2022-07-22T15:57:20;24.40;99.90
14739;DHT22;7461;52.440;13.540;2022-07-22T16:00:06;24.40;99.90